Time;durP1;ratioP1;P1;durP2;ratioP2;P2;SDS_P1;SDS_P2;PMS_P1;PMS_P2;Temp;Humidity;BMP_temperature;BMP_pressure;BME280_temperature;BME280_humidity;BME280_pressure;Samples;Min_cycle;Max_cycle;Signal;HPM_P1;HPM_P2
2024/04/09 00:01:24;;;;;;;;;;;;;;;-144.99;100.00;52338.03;5473103;26;19928;-65
2024/04/09 00:03:50;;;;;;;;;;;;;;;-144.99;100.00;52417.53;5456303;26;20287;-66
2024/04/09 00:06:19;;;;;;;;;;;;;;;-144.99;100.00;52333.94;5457015;26;19930;-65
2024/04/09 00:08:45;;;;;;;;;;;;;;;-144.99;100.00;52350.25;5455963;26;19929;-66
2024/04/09 00:11:21;;;;;;;;;;;;;;;-144.99;100.00;52364.53;5481030;26;19936;-67
2024/04/09 00:13:47;;;;;;;;;;;;;;;-144.99;100.00;52376.75;5475428;26;19928;-70
2024/04/09 00:16:16;;;;;;;;;;;;;;;-144.99;100.00;52376.75;5473393;26;19939;-67
2024/04/09 00:18:44;;;;;;;;;;;;;;;-144.99;100.00;52378.78;5473502;26;19940;-67
2024/04/09 00:21:13;;;;;;;;;;;;;;;-144.99;100.00;52366.56;5472244;26;19943;-70
2024/04/09 00:23:39;;;;;;;;;;;;;;;-144.99;100.00;52366.56;5463477;26;20262;-72
2024/04/09 00:26:09;;;;;;;;;;;;;;;-144.99;100.00;52358.41;5458690;26;19934;-71
2024/04/09 00:28:35;;;;;;;;;;;;;;;-144.99;100.00;52382.88;5480342;26;19932;-69
2024/04/09 00:31:04;;;;;;;;;;;;;;;-144.99;100.00;52382.88;5468824;26;19935;-67
2024/04/09 00:33:30;;;;;;;;;;;;;;;-144.99;100.00;52346.19;5481877;26;19928;-68
2024/04/09 00:36:01;;;;;;;;;;;;;;;-144.99;100.00;52372.69;5464321;26;19935;-67
2024/04/09 00:38:27;;;;;;;;;;;;;;;-144.99;100.00;52346.19;5474639;26;20250;-65
2024/04/09 00:40:57;;;;;;;;;;;;;;;-144.99;100.00;52378.78;5477813;26;19928;-65
2024/04/09 00:43:23;;;;;;;;;;;;;;;-144.99;100.00;52386.94;5451735;26;19996;-65
2024/04/09 00:45:55;;;;;;;;;;;;;;;-144.99;100.00;52391.03;5471502;26;19928;-65
2024/04/09 00:48:21;;;;;;;;;;;;;;;-144.99;100.00;52356.38;5479178;26;19928;-65
2024/04/09 00:50:50;;;;;;;;;;;;;;;-144.99;100.00;52354.34;5467749;26;19935;-65
2024/04/09 00:53:19;;;;;;;;;;;;;;;-144.99;100.00;52346.19;5467260;26;20355;-65
2024/04/09 00:55:49;;;;;;;;;;;;;;;-144.99;100.00;52395.09;5472308;26;20588;-65
2024/04/09 00:58:17;;;;;;;;;;;;;;;-144.99;100.00;52364.53;5460979;26;19952;-65
2024/04/09 01:00:46;;;;;;;;;;;;;;;-144.99;100.00;52391.03;5467005;26;20987;-65
2024/04/09 01:03:13;;;;;;;;;;;;;;;-144.99;100.00;52370.63;5473695;26;19988;-65
2024/04/09 01:05:41;;;;;;;;;;;;;;;-144.99;100.00;52354.34;5481082;26;19928;-66
2024/04/09 01:08:07;;;;;;;;;;;;;;;-144.99;100.00;52362.50;5484748;26;19958;-66
2024/04/09 01:10:39;;;;;;;;;;;;;;;-144.99;100.00;52374.72;5480832;26;19927;-65
2024/04/09 01:13:04;;;;;;;;;;;;;;;-144.99;100.00;52391.03;5461233;26;20433;-63
2024/04/09 01:15:33;;;;;;;;;;;;;;;-144.99;100.00;52370.63;5477424;26;19939;-64
2024/04/09 01:17:59;;;;;;;;;;;;;;;-144.99;100.00;52382.88;5478398;26;19935;-64
2024/04/09 01:20:27;;;;;;;;;;;;;;;-144.99;100.00;52366.56;5461466;26;19940;-63
2024/04/09 01:22:56;;;;;;;;;;;;;;;-144.99;100.00;52362.50;5465136;26;19928;-63
2024/04/09 01:25:25;;;;;;;;;;;;;;;-144.99;100.00;52366.56;5470435;26;19928;-63
2024/04/09 01:27:51;;;;;;;;;;;;;;;-144.99;100.00;52366.56;5473350;26;19928;-63
2024/04/09 01:30:20;;;;;;;;;;;;;;;-144.99;100.00;52374.72;5474657;26;19936;-64
2024/04/09 01:32:46;;;;;;;;;;;;;;;-144.99;100.00;52382.88;5469146;26;20368;-63
2024/04/09 01:35:14;;;;;;;;;;;;;;;-144.99;100.00;52362.50;5473243;26;19948;-63
2024/04/09 01:37:41;;;;;;;;;;;;;;;-144.99;100.00;52362.50;5468371;26;19960;-71
2024/04/09 01:40:13;;;;;;;;;;;;;;;-144.99;100.00;52338.03;5466600;26;19928;-70
2024/04/09 01:42:39;;;;;;;;;;;;;;;-144.99;100.00;52382.88;5474222;26;20322;-71
2024/04/09 01:45:07;;;;;;;;;;;;;;;-144.99;100.00;52362.50;5466609;26;19929;-71
2024/04/09 01:47:33;;;;;;;;;;;;;;;-144.99;100.00;52378.78;5479180;26;19939;-70
2024/04/09 01:50:03;;;;;;;;;;;;;;;-144.99;100.00;52354.34;5467662;26;20003;-70
2024/04/09 01:52:30;;;;;;;;;;;;;;;-144.99;100.00;52370.63;5462311;26;20022;-69
2024/04/09 01:54:58;;;;;;;;;;;;;;;-144.99;100.00;52391.03;5476756;26;19928;-69
2024/04/09 01:57:30;;;;;;;;;;;;;;;-144.99;100.00;52431.78;5474915;26;19939;-69
2024/04/09 01:59:59;;;;;;;;;;;;;;;-144.99;100.00;52370.63;5463824;26;19997;-67
2024/04/09 02:02:25;;;;;;;;;;;;;;;-144.99;100.00;52354.34;5457628;26;20013;-66
2024/04/09 02:04:53;;;;;;;;;;;;;;;-144.99;100.00;52364.53;5479389;26;20365;-66
2024/04/09 02:07:19;;;;;;;;;;;;;;;-144.99;100.00;52376.75;5471096;26;20323;-66
2024/04/09 02:09:50;;;;;;;;;;;;;;;-144.99;100.00;52399.19;5476489;26;20004;-65
2024/04/09 02:12:16;;;;;;;;;;;;;;;-144.99;100.00;52368.59;5465958;26;19932;-68
2024/04/09 02:14:48;;;;;;;;;;;;;;;-144.99;100.00;52350.25;5471779;26;19935;-67
2024/04/09 02:17:14;;;;;;;;;;;;;;;-144.99;100.00;52370.63;5473799;26;19935;-66
2024/04/09 02:19:43;;;;;;;;;;;;;;;-144.99;100.00;52354.34;5471608;26;19928;-66
2024/04/09 02:22:09;;;;;;;;;;;;;;;-144.99;100.00;52360.44;5465345;26;19935;-66
2024/04/09 02:24:37;;;;;;;;;;;;;;;-144.99;100.00;52395.09;5469632;26;20357;-67
2024/04/09 02:27:03;;;;;;;;;;;;;;;-144.99;100.00;52366.56;5453914;26;19992;-66
2024/04/09 02:29:33;;;;;;;;;;;;;;;-144.99;100.00;52366.56;5473146;26;19928;-66
2024/04/09 02:32:01;;;;;;;;;;;;;;;-144.99;100.00;52368.59;5479086;26;20179;-64
2024/04/09 02:34:35;;;;;;;;;;;;;;;-144.99;100.00;52362.50;5470489;26;20013;-65
2024/04/09 02:37:04;;;;;;;;;;;;;;;-144.99;100.00;52346.19;5474525;26;19935;-65
2024/04/09 02:39:32;;;;;;;;;;;;;;;-144.99;100.00;52352.28;5474393;26;19928;-65
2024/04/09 02:42:02;;;;;;;;;;;;;;;-144.99;100.00;52382.88;5471377;26;19944;-66
2024/04/09 02:44:32;;;;;;;;;;;;;;;-144.99;100.00;52380.84;5465204;26;20337;-66
2024/04/09 02:47:01;;;;;;;;;;;;;;;-144.99;100.00;52395.09;5458552;26;19929;-65
2024/04/09 02:49:30;;;;;;;;;;;;;;;-144.99;100.00;52364.53;5480670;26;19996;-65
2024/04/09 02:51:56;;;;;;;;;;;;;;;-144.99;100.00;52374.72;5476654;26;19939;-65
2024/04/09 02:54:25;;;;;;;;;;;;;;;-144.99;100.00;52362.50;5471207;26;20347;-67
2024/04/09 02:56:51;;;;;;;;;;;;;;;-144.99;100.00;52374.72;5469895;26;19981;-65
2024/04/09 02:59:20;;;;;;;;;;;;;;;-144.99;100.00;52329.88;5459332;26;19929;-65
2024/04/09 03:01:46;;;;;;;;;;;;;;;-144.99;100.00;52346.19;5468423;26;19928;-66
2024/04/09 03:04:17;;;;;;;;;;;;;;;-144.99;100.00;52340.06;5463683;26;19936;-66
2024/04/09 03:06:43;;;;;;;;;;;;;;;-144.99;100.00;52393.06;5467154;26;19928;-65
2024/04/09 03:09:12;;;;;;;;;;;;;;;-144.99;100.00;52358.41;5471090;26;19932;-67
2024/04/09 03:11:38;;;;;;;;;;;;;;;-144.99;100.00;52395.09;5457409;26;19943;-70
2024/04/09 03:14:10;;;;;;;;;;;;;;;-144.99;100.00;52366.56;5471955;26;20238;-71
2024/04/09 03:16:36;;;;;;;;;;;;;;;-144.99;100.00;52325.81;5454874;26;19939;-70
2024/04/09 03:19:06;;;;;;;;;;;;;;;-144.99;100.00;52366.56;5483233;26;19959;-66
2024/04/09 03:21:34;;;;;;;;;;;;;;;-144.99;100.00;52366.56;5478059;26;20440;-68
2024/04/09 03:24:03;;;;;;;;;;;;;;;-144.99;100.00;52378.78;5459924;26;20344;-71
2024/04/09 03:26:29;;;;;;;;;;;;;;;-144.99;100.00;52338.03;5466148;26;20325;-71
2024/04/09 03:28:57;;;;;;;;;;;;;;;-144.99;100.00;52362.50;5457415;26;19952;-71
2024/04/09 03:31:23;;;;;;;;;;;;;;;-144.99;100.00;52352.28;5461993;26;19939;-70
2024/04/09 03:33:53;;;;;;;;;;;;;;;-144.99;100.00;52370.63;5473236;26;19934;-69
2024/04/09 03:36:19;;;;;;;;;;;;;;;-144.99;100.00;52333.94;5477042;26;19963;-70
2024/04/09 03:38:51;;;;;;;;;;;;;;;-144.99;100.00;52350.25;5453942;26;20453;-70
2024/04/09 03:41:19;;;;;;;;;;;;;;;-144.99;100.00;52362.50;5470310;26;20163;-69
2024/04/09 03:43:45;;;;;;;;;;;;;;;-144.99;100.00;52352.28;5470499;26;19928;-69
2024/04/09 03:46:14;;;;;;;;;;;;;;;-144.99;100.00;52358.41;5471545;26;20399;-69
2024/04/09 03:48:42;;;;;;;;;;;;;;;-144.99;100.00;52317.66;5479744;26;20211;-69
2024/04/09 03:51:11;;;;;;;;;;;;;;;-144.99;100.00;52325.81;5460441;26;19941;-69
2024/04/09 03:53:37;;;;;;;;;;;;;;;-144.99;100.00;52376.75;5474770;26;20032;-68
2024/04/09 03:56:09;;;;;;;;;;;;;;;-144.99;100.00;52366.56;5471465;26;19928;-68
2024/04/09 03:58:37;;;;;;;;;;;;;;;-144.99;100.00;52366.56;5467581;26;20370;-69
2024/04/09 04:01:06;;;;;;;;;;;;;;;-144.99;100.00;52342.09;5463083;26;20353;-66
2024/04/09 04:03:33;;;;;;;;;;;;;;;-144.99;100.00;52358.41;5468824;26;19935;-67
2024/04/09 04:06:02;;;;;;;;;;;;;;;-144.99;100.00;52352.28;5470738;26;20018;-66
2024/04/09 04:08:29;;;;;;;;;;;;;;;-144.99;100.00;52374.72;5475466;26;20014;-67
2024/04/09 04:10:57;;;;;;;;;;;;;;;-144.99;100.00;52350.25;5467370;26;20028;-67
2024/04/09 04:13:27;;;;;;;;;;;;;;;-144.99;100.00;52360.44;5475079;26;20512;-67
2024/04/09 04:15:59;;;;;;;;;;;;;;;-144.99;100.00;52382.88;5480029;26;20354;-66
2024/04/09 04:18:25;;;;;;;;;;;;;;;-144.99;100.00;52342.09;5469944;26;19958;-67
2024/04/09 04:20:54;;;;;;;;;;;;;;;-144.99;100.00;52362.50;5476661;26;20227;-68
2024/04/09 04:23:19;;;;;;;;;;;;;;;-144.99;100.00;52333.94;5478121;26;19928;-68
2024/04/09 04:25:55;;;;;;;;;;;;;;;-144.99;100.00;52358.41;5475439;26;19928;-67
2024/04/09 04:28:21;;;;;;;;;;;;;;;-144.99;100.00;52370.63;5468903;26;20399;-63
2024/04/09 04:30:53;;;;;;;;;;;;;;;-144.99;100.00;52370.63;5480186;26;19928;-62
2024/04/09 04:33:19;;;;;;;;;;;;;;;-144.99;100.00;52374.72;5467713;26;19948;-65
2024/04/09 04:35:47;;;;;;;;;;;;;;;-144.99;100.00;52378.78;5475359;26;20649;-63
2024/04/09 04:38:13;;;;;;;;;;;;;;;-144.99;100.00;52346.19;5470441;26;20066;-64
2024/04/09 04:40:42;;;;;;;;;;;;;;;-144.99;100.00;52378.78;5472653;26;20396;-65
2024/04/09 04:43:07;;;;;;;;;;;;;;;-144.99;100.00;52366.56;5467616;26;19936;-66
2024/04/09 04:45:36;;;;;;;;;;;;;;;-144.99;100.00;52362.50;5478821;26;20365;-66
2024/04/09 04:48:05;;;;;;;;;;;;;;;-144.99;100.00;52350.25;5472119;26;20028;-66
2024/04/09 04:50:33;;;;;;;;;;;;;;;-144.99;100.00;52362.50;5472045;26;19952;-67
2024/04/09 04:53:01;;;;;;;;;;;;;;;-144.99;100.00;52364.53;5476108;26;19939;-66
2024/04/09 04:55:29;;;;;;;;;;;;;;;-144.99;100.00;52370.63;5469199;26;19928;-66
2024/04/09 04:57:55;;;;;;;;;;;;;;;-144.99;100.00;52350.25;5469289;26;20286;-66
2024/04/09 05:00:24;;;;;;;;;;;;;;;-144.99;100.00;52350.25;5473682;26;19936;-65
2024/04/09 05:02:50;;;;;;;;;;;;;;;-144.99;100.00;52362.50;5455623;26;19936;-66
2024/04/09 05:05:21;;;;;;;;;;;;;;;-144.99;100.00;52342.09;5465936;26;20000;-65
2024/04/09 05:07:48;;;;;;;;;;;;;;;-144.99;100.00;52388.97;5470656;26;19931;-67
2024/04/09 05:10:17;;;;;;;;;;;;;;;-144.99;100.00;52362.50;5472946;26;19935;-67
2024/04/09 05:12:45;;;;;;;;;;;;;;;-144.99;100.00;52370.63;5466744;26;19957;-66
2024/04/09 05:15:14;;;;;;;;;;;;;;;-144.99;100.00;52374.72;5467790;26;19934;-65
2024/04/09 05:17:40;;;;;;;;;;;;;;;-144.99;100.00;52401.22;5476877;26;19928;-67
2024/04/09 05:20:10;;;;;;;;;;;;;;;-144.99;100.00;52382.88;5476714;26;20230;-67
2024/04/09 05:22:39;;;;;;;;;;;;;;;-144.99;100.00;52370.63;5467677;26;19935;-67
2024/04/09 05:25:08;;;;;;;;;;;;;;;-144.99;100.00;52346.19;5467989;26;19936;-66
2024/04/09 05:27:35;;;;;;;;;;;;;;;-144.99;100.00;52346.19;5468049;26;20022;-72
2024/04/09 05:30:04;;;;;;;;;;;;;;;-144.99;100.00;52346.19;5470300;26;20358;-67
2024/04/09 05:32:30;;;;;;;;;;;;;;;-144.99;100.00;52317.66;5478468;26;20000;-67
2024/04/09 05:34:58;;;;;;;;;;;;;;;-144.99;100.00;52399.19;5465512;26;20385;-67
2024/04/09 05:37:24;;;;;;;;;;;;;;;-144.99;100.00;52362.50;5464529;26;19928;-70
2024/04/09 05:39:57;;;;;;;;;;;;;;;-144.99;100.00;52378.78;5470796;26;20330;-70
2024/04/09 05:42:23;;;;;;;;;;;;;;;-144.99;100.00;52338.03;5462125;26;19927;-69
2024/04/09 05:44:52;;;;;;;;;;;;;;;-144.99;100.00;52368.59;5475106;26;20223;-68
2024/04/09 05:47:18;;;;;;;;;;;;;;;-144.99;100.00;52366.56;5481952;26;19935;-68
2024/04/09 05:49:47;;;;;;;;;;;;;;;-144.99;100.00;52313.56;4723571;25;10000663;-67
2024/04/09 05:52:13;;;;;;;;;;;;;;;-144.99;100.00;52333.94;5454569;26;19997;-67
2024/04/09 05:54:42;;;;;;;;;;;;;;;-144.99;100.00;52374.72;5467902;26;20274;-67
2024/04/09 05:57:10;;;;;;;;;;;;;;;-144.99;100.00;52370.63;5468776;26;20349;-67
2024/04/09 05:59:39;;;;;;;;;;;;;;;-144.99;100.00;52336.00;5455347;26;20057;-67
2024/04/09 06:02:06;;;;;;;;;;;;;;;-144.99;100.00;52329.88;5468495;26;20409;-70
2024/04/09 06:04:34;;;;;;;;;;;;;;;-144.99;100.00;52360.44;5465422;26;19932;-67
2024/04/09 06:07:01;;;;;;;;;;;;;;;-144.99;100.00;52350.25;5468160;26;19932;-67
2024/04/09 06:09:30;;;;;;;;;;;;;;;-144.99;100.00;52338.03;5478265;26;20265;-68
2024/04/09 06:11:56;;;;;;;;;;;;;;;-144.99;100.00;52358.41;5461405;26;19928;-67
2024/04/09 06:14:27;;;;;;;;;;;;;;;-144.99;100.00;52354.34;5465390;26;19934;-68
2024/04/09 06:16:53;;;;;;;;;;;;;;;-144.99;100.00;52397.13;5461404;26;20750;-67
2024/04/09 06:19:21;;;;;;;;;;;;;;;-144.99;100.00;52362.50;5459649;26;19936;-67
2024/04/09 06:21:47;;;;;;;;;;;;;;;-144.99;100.00;52329.88;5457192;26;19928;-68
2024/04/09 06:24:16;;;;;;;;;;;;;;;-144.99;100.00;52354.34;5470217;26;20478;-67
2024/04/09 06:26:42;;;;;;;;;;;;;;;-144.99;100.00;52352.28;5474894;26;19928;-67
2024/04/09 06:29:10;;;;;;;;;;;;;;;-144.99;100.00;52366.56;5451960;26;20156;-67
2024/04/09 06:31:41;;;;;;;;;;;;;;;-144.99;100.00;52340.06;5464643;26;19935;-67
2024/04/09 06:34:07;;;;;;;;;;;;;;;-144.99;100.00;52346.19;5454759;26;20345;-67
2024/04/09 06:36:36;;;;;;;;;;;;;;;-144.99;100.00;52338.03;5475760;26;20002;-67
2024/04/09 06:39:02;;;;;;;;;;;;;;;-144.99;100.00;52388.97;5470666;26;20262;-67
2024/04/09 06:41:30;;;;;;;;;;;;;;;-144.99;100.00;52350.25;5467040;26;19928;-67
2024/04/09 06:43:56;;;;;;;;;;;;;;;-144.99;100.00;52333.94;5476076;26;20453;-67
2024/04/09 06:46:25;;;;;;;;;;;;;;;-144.99;100.00;52362.50;5470212;26;19968;-68
2024/04/09 06:48:53;;;;;;;;;;;;;;;-144.99;100.00;52378.78;5475511;26;20377;-68
2024/04/09 06:51:22;;;;;;;;;;;;;;;-144.99;100.00;52338.03;5458213;26;19936;-68
2024/04/09 06:53:48;;;;;;;;;;;;;;;-144.99;100.00;52352.28;5444128;26;20027;-69
2024/04/09 06:56:16;;;;;;;;;;;;;;;-144.99;100.00;52370.63;5475204;26;20425;-69
2024/04/09 06:58:43;;;;;;;;;;;;;;;-144.99;100.00;52391.03;5459878;26;20413;-67
2024/04/09 07:01:11;;;;;;;;;;;;;;;-144.99;100.00;52374.72;5472131;26;19927;-68
2024/04/09 07:03:37;;;;;;;;;;;;;;;-144.99;100.00;52362.50;5463667;26;20289;-67
2024/04/09 07:06:08;;;;;;;;;;;;;;;-144.99;100.00;52370.63;5451610;26;19936;-69
2024/04/09 07:08:34;;;;;;;;;;;;;;;-144.99;99.98;52376.75;5480577;26;19939;-68
2024/04/09 07:11:03;;;;;;;;;;;;;;;-144.99;99.62;52313.56;5470526;26;19939;-67
2024/04/09 07:13:29;;;;;;;;;;;;;;;-144.99;99.19;52350.25;5466857;26;19935;-67
2024/04/09 07:15:58;;;;;;;;;;;;;;;-144.99;98.93;52346.19;5475413;26;19972;-67
2024/04/09 07:18:26;;;;;;;;;;;;;;;-144.99;98.68;52325.81;5469955;26;19935;-68
2024/04/09 07:20:55;;;;;;;;;;;;;;;-144.99;98.26;52354.34;5466966;26;20333;-68
2024/04/09 07:23:23;;;;;;;;;;;;;;;-144.99;97.47;52303.38;5475865;26;20463;-67
2024/04/09 07:25:52;;;;;;;;;;;;;;;-144.99;97.37;52395.09;5465200;26;19928;-68
2024/04/09 07:28:18;;;;;;;;;;;;;;;-144.99;96.97;52378.78;5476317;26;19991;-67
2024/04/09 07:30:46;;;;;;;;;;;;;;;-144.99;96.66;52391.03;5477869;26;19936;-68
2024/04/09 07:33:12;;;;;;;;;;;;;;;-144.99;97.10;52358.41;5459983;26;20301;-67
2024/04/09 07:35:40;;;;;;;;;;;;;;;-144.99;97.29;52382.88;5458627;26;19935;-67
2024/04/09 07:38:07;;;;;;;;;;;;;;;-144.99;96.80;52391.03;5478128;26;20036;-67
2024/04/09 07:40:39;;;;;;;;;;;;;;;-144.99;96.25;52333.94;5469615;26;19952;-68
2024/04/09 07:43:05;;;;;;;;;;;;;;;-144.99;96.59;52358.41;5470208;26;19988;-68
2024/04/09 07:45:34;;;;;;;;;;;;;;;-144.99;97.01;52362.50;5471463;26;19952;-68
2024/04/09 07:48:00;;;;;;;;;;;;;;;-144.99;97.00;52362.50;5461213;26;19929;-69
2024/04/09 07:50:29;;;;;;;;;;;;;;;-144.99;96.91;52350.25;5476651;26;19928;-68
2024/04/09 07:52:54;;;;;;;;;;;;;;;-144.99;98.11;52350.25;5479249;26;19997;-68
2024/04/09 07:55:23;;;;;;;;;;;;;;;-144.99;97.71;52362.50;5476290;26;19939;-68
2024/04/09 07:57:52;;;;;;;;;;;;;;;-144.99;97.55;52378.78;5473219;26;19929;-68
2024/04/09 08:00:20;;;;;;;;;;;;;;;-144.99;97.27;52329.88;5455730;26;19995;-68
2024/04/09 08:02:46;;;;;;;;;;;;;;;-144.99;98.41;52358.41;5480153;26;19928;-68
2024/04/09 08:05:16;;;;;;;;;;;;;;;-144.99;98.21;52333.94;5464461;26;20274;-68
2024/04/09 08:07:42;;;;;;;;;;;;;;;-144.99;98.33;52358.41;5471474;26;19940;-68
2024/04/09 08:10:12;;;;;;;;;;;;;;;-144.99;98.47;52342.09;5474572;26;19955;-68
2024/04/09 08:12:39;;;;;;;;;;;;;;;-144.99;99.25;52350.25;5469967;26;19935;-67
2024/04/09 08:15:10;;;;;;;;;;;;;;;-144.99;98.98;52333.94;5475428;26;19984;-67
2024/04/09 08:17:36;;;;;;;;;;;;;;;-144.99;98.53;52348.22;5471610;26;19954;-67
2024/04/09 08:20:07;;;;;;;;;;;;;;;-144.99;98.30;52380.84;5462305;26;19936;-68
2024/04/09 08:22:33;;;;;;;;;;;;;;;-144.99;97.90;52358.41;5467489;26;20406;-67
2024/04/09 08:25:02;;;;;;;;;;;;;;;-144.99;97.92;52378.78;5468606;26;19928;-67
2024/04/09 08:27:28;;;;;;;;;;;;;;;-144.99;97.20;52329.88;5472014;26;20059;-67
2024/04/09 08:29:56;;;;;;;;;;;;;;;-144.99;97.03;52358.41;5481634;26;19928;-69
2024/04/09 08:32:25;;;;;;;;;;;;;;;-144.99;96.61;52317.66;5471539;26;20319;-68
2024/04/09 08:34:54;;;;;;;;;;;;;;;-144.99;96.33;52333.94;5477655;26;19939;-68
2024/04/09 08:37:20;;;;;;;;;;;;;;;-144.99;96.13;52352.28;5467614;26;20210;-68
2024/04/09 08:39:49;;;;;;;;;;;;;;;-144.99;96.07;52350.25;5472974;26;20312;-68
2024/04/09 08:42:16;;;;;;;;;;;;;;;-144.99;95.72;52370.63;5484273;26;20325;-68
2024/04/09 08:44:45;;;;;;;;;;;;;;;-144.99;95.41;52329.88;5484679;26;19947;-68
2024/04/09 08:47:11;;;;;;;;;;;;;;;-144.99;94.97;52342.09;5463217;26;19928;-68
2024/04/09 08:49:43;;;;;;;;;;;;;;;-144.99;95.24;52338.03;5471003;26;19928;-68
2024/04/09 08:52:09;;;;;;;;;;;;;;;-144.99;95.93;52319.69;5482499;26;19928;-68
2024/04/09 08:54:38;;;;;;;;;;;;;;;-144.99;95.04;52346.19;5481861;26;19935;-68
2024/04/09 08:57:05;;;;;;;;;;;;;;;-144.99;94.55;52321.72;5462281;26;20371;-68
2024/04/09 08:59:34;;;;;;;;;;;;;;;-144.99;94.02;52321.72;5467070;26;19928;-68
2024/04/09 09:02:03;;;;;;;;;;;;;;;-144.99;92.71;52333.94;5477754;26;19931;-68
2024/04/09 09:04:36;;;;;;;;;;;;;;;-144.99;91.14;52319.69;5480549;26;19928;-68
2024/04/09 09:07:06;;;;;;;;;;;;;;;-144.99;90.11;52309.50;5464424;26;19938;-68
2024/04/09 09:09:36;;;;;;;;;;;;;;;-144.99;88.73;52301.34;5471765;26;19928;-68
2024/04/09 09:12:03;;;;;;;;;;;;;;;-144.99;86.94;52309.50;5462909;26;19928;-68
2024/04/09 09:14:32;;;;;;;;;;;;;;;-144.99;84.26;52272.81;5479092;26;19928;-68
2024/04/09 09:17:01;;;;;;;;;;;;;;;-144.99;82.14;52285.03;5477829;26;20489;-68
2024/04/09 09:19:31;;;;;;;;;;;;;;;-144.99;80.22;52215.75;5457883;26;20358;-67
2024/04/09 09:21:57;;;;;;;;;;;;;;;-144.99;78.38;52252.44;5470391;26;19967;-67
2024/04/09 09:24:31;;;;;;;;;;;;;;;-144.99;78.60;52293.19;5471163;26;19935;-67
2024/04/09 09:27:00;;;;;;;;;;;;;;;-144.99;80.29;52317.66;5463604;26;20047;-67
2024/04/09 09:29:28;;;;;;;;;;;;;;;-144.99;81.61;52276.88;5456417;26;19939;-66
2024/04/09 09:31:54;;;;;;;;;;;;;;;-144.99;81.63;52325.81;5460090;26;20000;-67
2024/04/09 09:34:28;;;;;;;;;;;;;;;-144.99;83.29;52297.25;5473281;26;20355;-67
2024/04/09 09:36:58;;;;;;;;;;;;;;;-144.99;83.45;52350.25;5476895;26;20003;-67
2024/04/09 09:39:30;;;;;;;;;;;;;;;-144.99;84.60;52305.41;5457571;26;19928;-69
2024/04/09 09:41:57;;;;;;;;;;;;;;;-144.99;85.43;52323.75;5478703;26;20088;-68
2024/04/09 09:44:26;;;;;;;;;;;;;;;-144.99;86.79;52289.13;5463054;26;19935;-68
2024/04/09 09:46:53;;;;;;;;;;;;;;;-144.99;87.07;52358.41;5478582;26;20460;-68
2024/04/09 09:49:22;;;;;;;;;;;;;;;-144.99;89.51;52350.25;5457882;26;19936;-67
2024/04/09 09:51:50;;;;;;;;;;;;;;;-144.99;92.38;52350.25;5457154;26;19928;-67
2024/04/09 09:54:19;;;;;;;;;;;;;;;-144.99;93.63;52366.56;5473665;26;20378;-68
2024/04/09 09:56:50;;;;;;;;;;;;;;;-144.99;94.09;52342.09;5474797;26;19936;-67
2024/04/09 09:59:20;;;;;;;;;;;;;;;-144.99;92.19;52358.41;5456532;26;19928;-68
2024/04/09 10:01:48;;;;;;;;;;;;;;;-144.99;91.35;52358.41;5470460;26;19927;-67
2024/04/09 10:04:17;;;;;;;;;;;;;;;-144.99;92.10;52382.88;5454212;26;20047;-67
2024/04/09 10:06:53;;;;;;;;;;;;;;;-144.99;91.30;52378.78;5472366;26;20266;-68
2024/04/09 10:09:21;;;;;;;;;;;;;;;-144.99;92.52;52378.78;5455139;26;19932;-67
2024/04/09 10:11:50;;;;;;;;;;;;;;;-144.99;93.64;52333.94;5471223;26;19928;-68
2024/04/09 10:14:25;;;;;;;;;;;;;;;-144.99;93.05;52354.34;5473715;26;19994;-69
2024/04/09 10:16:51;;;;;;;;;;;;;;;-144.99;94.94;52319.69;5479633;26;19928;-68
2024/04/09 10:19:19;;;;;;;;;;;;;;;-144.99;95.88;52321.72;5471317;26;20376;-67
2024/04/09 10:21:47;;;;;;;;;;;;;;;-144.99;96.78;52382.88;5477612;26;19927;-68
2024/04/09 10:24:16;;;;;;;;;;;;;;;-144.99;96.83;52376.75;5478172;26;19928;-68
2024/04/09 10:26:44;;;;;;;;;;;;;;;-144.99;96.51;52317.66;5465725;26;19960;-68
2024/04/09 10:29:20;;;;;;;;;;;;;;;-144.99;96.73;52333.94;5471187;26;19935;-68
2024/04/09 10:31:49;;;;;;;;;;;;;;;-144.99;98.11;52366.56;5460866;26;20298;-67
2024/04/09 10:34:26;;;;;;;;;;;;;;;-144.99;99.86;52382.88;5456994;26;20726;-67
2024/04/09 10:36:52;;;;;;;;;;;;;;;-144.99;98.98;52407.31;5457056;26;20355;-69
2024/04/09 10:39:24;;;;;;;;;;;;;;;-144.99;98.69;52403.25;5460193;26;19932;-68
2024/04/09 10:41:53;;;;;;;;;;;;;;;-144.99;97.35;52346.19;5460039;26;19929;-69
2024/04/09 10:44:24;;;;;;;;;;;;;;;-144.99;97.17;52354.34;5430251;21;19994;-71
2024/04/09 10:46:50;;;;;;;;;;;;;;;-144.99;96.40;52333.94;5405226;26;19940;-71
2024/04/09 10:49:20;;;;;;;;;;;;;;;-144.99;96.54;52366.56;5391192;26;20168;-70
2024/04/09 10:51:46;;;;;;;;;;;;;;;-144.99;95.62;52427.72;5381031;26;20354;-70
2024/04/09 10:54:15;;;;;;;;;;;;;;;-144.99;96.01;52348.22;5370233;26;19933;-70
2024/04/09 10:56:41;;;;;;;;;;;;;;;-144.99;95.13;52358.41;5364979;26;20319;-70
2024/04/09 10:59:16;;;;;;;;;;;;;;;-144.99;94.15;52333.94;5351077;26;19934;-70
2024/04/09 11:01:45;;;;;;;;;;;;;;;-144.99;93.68;52329.88;5361018;26;19938;-69
2024/04/09 11:04:14;;;;;;;;;;;;;;;-144.99;91.82;52317.66;5370277;26;19937;-70
2024/04/09 11:06:41;;;;;;;;;;;;;;;-144.99;91.89;52372.69;5370695;26;19936;-70
2024/04/09 11:09:11;;;;;;;;;;;;;;;-144.99;91.44;52350.25;5370515;26;19930;-70
2024/04/09 11:11:40;;;;;;;;;;;;;;;-144.99;91.01;52344.16;5367461;26;19940;-69
2024/04/09 11:14:09;;;;;;;;;;;;;;;-144.99;90.92;52346.19;5368949;26;19936;-70
2024/04/09 11:16:45;;;;;;;;;;;;;;;-144.99;90.74;52358.41;5368310;26;19936;-70
2024/04/09 11:19:23;;;;;;;;;;;;;;;-144.99;89.78;52366.56;5362253;26;19937;-70
2024/04/09 11:21:49;;;;;;;;;;;;;;;-144.99;89.72;52342.09;5368940;26;20465;-70
2024/04/09 11:24:18;;;;;;;;;;;;;;;-144.99;88.24;52368.59;5354770;26;19941;-71
2024/04/09 11:26:45;;;;;;;;;;;;;;;-144.99;88.65;52358.41;5370429;26;19951;-70
2024/04/09 11:29:21;;;;;;;;;;;;;;;-144.99;89.31;52362.50;5370609;26;19929;-70
2024/04/09 11:31:46;;;;;;;;;;;;;;;-144.99;90.32;52336.00;5366431;26;20335;-70
2024/04/09 11:34:28;;;;;;;;;;;;;;;-144.99;91.61;52399.19;5369306;26;19995;-70
2024/04/09 11:36:54;;;;;;;;;;;;;;;-144.99;92.15;52348.22;5375252;26;19936;-70
2024/04/09 11:39:23;;;;;;;;;;;;;;;-144.99;92.31;52370.63;5374726;26;19929;-69
2024/04/09 11:41:49;;;;;;;;;;;;;;;-144.99;92.26;52378.78;5366140;26;19930;-69
2024/04/09 11:44:21;;;;;;;;;;;;;;;-144.99;92.61;52350.25;5351239;26;19930;-70
2024/04/09 11:46:47;;;;;;;;;;;;;;;-144.99;92.56;52366.56;5317798;26;19930;-69
2024/04/09 11:49:15;;;;;;;;;;;;;;;-144.99;92.88;52366.56;5334955;26;20000;-69
2024/04/09 11:51:45;;;;;;;;;;;;;;;-144.99;92.42;52338.03;5338737;26;19938;-69
2024/04/09 11:54:14;;;;;;;;;;;;;;;-144.99;91.54;52366.56;5333256;26;20269;-70
2024/04/09 11:56:40;;;;;;;;;;;;;;;-144.99;90.82;52354.34;5338243;26;19931;-69
2024/04/09 11:59:08;;;;;;;;;;;;;;;-144.99;91.00;52362.50;5336339;26;20243;-69
2024/04/09 12:01:34;;;;;;;;;;;;;;;-144.99;90.63;52370.63;5339534;26;19930;-69
2024/04/09 12:04:03;;;;;;;;;;;;;;;-144.99;90.80;52370.63;5334159;26;19937;-70
2024/04/09 12:06:29;;;;;;;;;;;;;;;-144.99;89.81;52372.69;5337145;26;20379;-70
2024/04/09 12:09:00;;;;;;;;;;;;;;;-144.99;89.30;52395.09;5325064;26;19930;-69
2024/04/09 12:11:27;;;;;;;;;;;;;;;-144.99;89.90;52393.06;5339469;26;19929;-69
2024/04/09 12:13:55;;;;;;;;;;;;;;;-144.99;90.65;52374.72;5338337;26;20284;-70
2024/04/09 12:16:21;;;;;;;;;;;;;;;-144.99;90.49;52415.47;5332737;26;19942;-70
2024/04/09 12:18:50;;;;;;;;;;;;;;;-144.99;90.18;52407.31;5336297;26;20426;-69
2024/04/09 12:21:16;;;;;;;;;;;;;;;-144.99;91.34;52435.88;5336210;26;20247;-70
2024/04/09 12:23:45;;;;;;;;;;;;;;;-144.99;95.74;52439.94;5335976;26;20257;-70
2024/04/09 12:26:14;;;;;;;;;;;;;;;-144.99;96.36;52399.19;5338148;26;19993;-70